createdAt,value
2018-10-15T00:01:42.571Z,11.47
2018-10-15T00:04:10.644Z,11.07
2018-10-15T00:06:38.689Z,10.63
2018-10-15T00:09:07.150Z,10.83
2018-10-15T00:11:35.201Z,10.30
2018-10-15T00:14:03.280Z,9.30
2018-10-15T00:16:31.344Z,9.37
2018-10-15T00:18:59.390Z,10.93
2018-10-15T00:21:27.497Z,10.03
2018-10-15T00:23:55.622Z,10.60
2018-10-15T00:26:23.731Z,7.57
2018-10-15T00:28:51.761Z,8.73
2018-10-15T00:31:19.817Z,9.60
2018-10-15T00:33:47.926Z,8.83
2018-10-15T00:36:15.984Z,8.37
2018-10-15T00:38:44.004Z,8.07
2018-10-15T00:41:12.064Z,8.10
2018-10-15T00:43:40.078Z,7.97
2018-10-15T00:46:08.102Z,7.10
2018-10-15T00:48:36.173Z,7.20
2018-10-15T00:51:04.845Z,7.23
2018-10-15T00:53:32.885Z,7.30
2018-10-15T00:56:00.902Z,7.73
2018-10-15T00:58:29.016Z,7.60
2018-10-15T01:00:57.036Z,7.80
2018-10-15T01:03:25.086Z,7.20
2018-10-15T01:05:53.101Z,7.83
2018-10-15T01:08:21.133Z,6.97
2018-10-15T01:10:49.257Z,7.97
2018-10-15T01:13:17.400Z,8.07
2018-10-15T01:15:45.449Z,8.03
2018-10-15T01:18:13.481Z,7.80
2018-10-15T01:20:41.521Z,7.67
2018-10-15T01:23:09.631Z,7.30
2018-10-15T01:25:37.669Z,7.70
2018-10-15T01:28:05.722Z,7.40
2018-10-15T01:30:33.729Z,7.13
2018-10-15T01:33:01.751Z,7.30
2018-10-15T01:35:29.803Z,7.53
2018-10-15T01:37:57.837Z,7.10
2018-10-15T01:40:25.910Z,6.87
2018-10-15T01:42:53.923Z,7.30
2018-10-15T01:45:22.054Z,7.60
2018-10-15T01:47:50.125Z,7.33
2018-10-15T01:50:18.277Z,7.10
2018-10-15T01:52:46.415Z,6.93
2018-10-15T01:55:14.437Z,6.27
2018-10-15T01:57:42.463Z,7.13
2018-10-15T02:00:10.533Z,7.20
2018-10-15T02:02:38.544Z,7.50
2018-10-15T02:05:07.153Z,6.93
2018-10-15T02:07:35.174Z,7.17
2018-10-15T02:10:03.725Z,7.53
2018-10-15T02:12:31.739Z,7.43
2018-10-15T02:14:59.777Z,6.93
2018-10-15T02:17:27.797Z,6.83
2018-10-15T02:19:55.844Z,7.47
2018-10-15T02:22:23.885Z,6.43
2018-10-15T02:24:51.947Z,6.77
2018-10-15T02:27:20.009Z,6.70
2018-10-15T02:29:48.085Z,6.80
2018-10-15T02:32:16.194Z,7.00
2018-10-15T02:34:44.301Z,6.40
2018-10-15T02:37:12.450Z,6.43
2018-10-15T02:39:40.442Z,6.90
2018-10-15T02:42:08.524Z,6.10
2018-10-15T02:44:36.548Z,6.67
2018-10-15T02:47:04.687Z,6.63
2018-10-15T02:49:32.697Z,6.30
2018-10-15T02:52:00.712Z,6.60
2018-10-15T02:54:28.741Z,6.57
2018-10-15T02:56:56.789Z,6.37
2018-10-15T02:59:24.777Z,6.13
2018-10-15T03:01:52.944Z,6.97
2018-10-15T03:04:20.969Z,6.33
2018-10-15T03:06:49.042Z,5.77
2018-10-15T03:09:17.290Z,6.73
2018-10-15T03:11:45.329Z,6.57
2018-10-15T03:14:13.387Z,6.53
2018-10-15T03:16:41.458Z,6.97
2018-10-15T03:19:09.492Z,6.83
2018-10-15T03:21:37.574Z,6.43
2018-10-15T03:24:05.617Z,6.60
2018-10-15T03:26:34.063Z,6.17
2018-10-15T03:29:02.117Z,6.27
2018-10-15T03:31:30.217Z,6.43
2018-10-15T03:33:58.290Z,6.07
2018-10-15T03:36:26.329Z,6.50
2018-10-15T03:38:54.484Z,6.30
2018-10-15T03:41:22.664Z,6.57
2018-10-15T03:43:50.716Z,6.10
2018-10-15T03:46:18.852Z,6.37
2018-10-15T03:48:46.874Z,6.10
2018-10-15T03:51:14.933Z,6.40
2018-10-15T03:53:43.008Z,6.30
2018-10-15T03:56:11.040Z,6.07
2018-10-15T03:58:39.124Z,6.03
2018-10-15T04:01:07.168Z,6.03
2018-10-15T04:03:35.215Z,6.23
2018-10-15T04:06:03.317Z,6.20
2018-10-15T04:08:31.440Z,6.20
2018-10-15T04:10:59.414Z,6.23
2018-10-15T04:13:27.564Z,6.07
2018-10-15T04:15:55.515Z,5.87
2018-10-15T04:18:23.541Z,6.17
2018-10-15T04:20:51.601Z,6.10
2018-10-15T04:23:19.658Z,5.67
2018-10-15T04:25:47.716Z,6.07
2018-10-15T04:28:15.747Z,6.30
2018-10-15T04:30:43.801Z,6.20
2018-10-15T04:33:11.805Z,6.47
2018-10-15T04:35:39.913Z,6.03
2018-10-15T04:38:07.933Z,6.17
2018-10-15T04:40:35.957Z,6.70
2018-10-15T04:43:04.446Z,6.57
2018-10-15T04:45:32.501Z,6.90
2018-10-15T04:48:00.597Z,5.93
2018-10-15T04:50:28.652Z,6.07
2018-10-15T04:52:56.755Z,6.57
2018-10-15T04:55:24.934Z,6.10
2018-10-15T04:57:52.806Z,6.47
2018-10-15T05:00:20.926Z,6.37
2018-10-15T05:02:49.124Z,6.30
2018-10-15T05:05:17.355Z,6.60
2018-10-15T05:07:45.421Z,6.77
2018-10-15T05:10:13.486Z,7.00
2018-10-15T05:12:41.498Z,6.53
2018-10-15T05:15:09.576Z,6.57
2018-10-15T05:17:37.676Z,6.70
2018-10-15T05:20:07.293Z,6.63
2018-10-15T05:22:35.344Z,5.73
2018-10-15T05:25:03.595Z,6.47
2018-10-15T05:27:31.661Z,7.07
2018-10-15T05:29:59.702Z,6.43
2018-10-15T05:32:27.697Z,7.17
2018-10-15T05:34:55.724Z,6.03
2018-10-15T05:37:23.752Z,6.37
2018-10-15T05:39:51.801Z,7.60
2018-10-15T05:42:19.942Z,6.87
2018-10-15T05:44:47.905Z,6.73
2018-10-15T05:47:15.940Z,6.80
2018-10-15T05:49:44.013Z,7.00
2018-10-15T05:52:12.125Z,6.53
2018-10-15T05:54:40.153Z,6.43
2018-10-15T05:57:08.410Z,6.67
2018-10-15T05:59:36.438Z,6.73
2018-10-15T06:02:04.579Z,6.93
2018-10-15T06:04:32.631Z,7.07
2018-10-15T06:07:00.704Z,6.87
2018-10-15T06:09:28.720Z,6.80
2018-10-15T06:11:56.767Z,6.13
2018-10-15T06:14:24.814Z,7.00
2018-10-15T06:16:52.865Z,6.87
2018-10-15T06:19:21.040Z,7.13
2018-10-15T06:21:49.357Z,7.20
2018-10-15T06:24:17.537Z,7.07
2018-10-15T06:26:45.499Z,6.87
2018-10-15T06:29:13.582Z,7.77
2018-10-15T06:31:41.810Z,7.27
2018-10-15T06:34:09.878Z,8.10
2018-10-15T06:36:37.928Z,7.83
2018-10-15T06:39:06.891Z,7.13
2018-10-15T06:41:34.978Z,8.27
2018-10-15T06:44:04.346Z,7.33
2018-10-15T06:46:32.508Z,7.43
2018-10-15T06:49:00.481Z,8.23
2018-10-15T06:51:28.453Z,7.50
2018-10-15T06:53:56.488Z,7.87
2018-10-15T06:56:24.498Z,8.30
2018-10-15T06:58:52.552Z,7.97
2018-10-15T07:01:20.752Z,8.03
2018-10-15T07:03:48.773Z,8.33
2018-10-15T07:06:16.913Z,8.63
2018-10-15T07:08:44.903Z,7.73
2018-10-15T07:11:13.260Z,8.63
2018-10-15T07:13:41.406Z,8.50
2018-10-15T07:16:09.454Z,8.43
2018-10-15T07:18:37.518Z,8.37
2018-10-15T07:21:05.682Z,8.27
2018-10-15T07:23:33.741Z,8.47
2018-10-15T07:26:01.830Z,7.17
2018-10-15T07:28:30.014Z,7.87
2018-10-15T07:30:58.063Z,8.00
2018-10-15T07:33:26.102Z,7.10
2018-10-15T07:35:54.376Z,7.80
2018-10-15T07:38:22.432Z,8.37
2018-10-15T07:40:50.482Z,7.47
2018-10-15T07:43:18.535Z,8.40
2018-10-15T07:45:46.630Z,8.83
2018-10-15T07:48:14.730Z,8.33
2018-10-15T07:50:42.802Z,8.00
2018-10-15T07:53:10.874Z,7.60
2018-10-15T07:55:38.944Z,8.43
2018-10-15T07:58:07.027Z,8.07
2018-10-15T08:00:35.145Z,7.90
2018-10-15T08:03:03.310Z,8.50
2018-10-15T08:05:31.371Z,7.53
2018-10-15T08:07:59.661Z,7.33
2018-10-15T08:10:27.818Z,7.57
2018-10-15T08:12:55.760Z,8.13
2018-10-15T08:15:23.875Z,7.37
2018-10-15T08:17:51.869Z,8.23
2018-10-15T08:20:19.972Z,7.47
2018-10-15T08:22:48.055Z,7.87
2018-10-15T08:25:16.203Z,7.23
2018-10-15T08:27:44.274Z,7.67
2018-10-15T08:30:12.970Z,7.30
2018-10-15T08:32:41.126Z,7.67
2018-10-15T08:35:09.273Z,7.07
2018-10-15T08:37:37.734Z,7.77
2018-10-15T08:40:09.953Z,6.87
2018-10-15T08:42:38.073Z,7.90
2018-10-15T08:45:07.559Z,7.40
2018-10-15T08:47:35.638Z,6.83
2018-10-15T08:50:04.041Z,7.67
2018-10-15T08:52:32.237Z,7.50
2018-10-15T08:55:00.310Z,6.67
2018-10-15T08:57:28.365Z,7.30
2018-10-15T08:59:56.441Z,7.03
2018-10-15T09:02:24.510Z,7.17
2018-10-15T09:04:52.590Z,6.83
2018-10-15T09:07:20.643Z,7.17
2018-10-15T09:09:48.738Z,6.63
2018-10-15T09:12:16.847Z,7.20
2018-10-15T09:14:45.070Z,7.07
2018-10-15T09:17:13.010Z,7.40
2018-10-15T09:19:41.115Z,7.63
2018-10-15T09:22:10.021Z,6.77
2018-10-15T09:24:38.050Z,6.77
2018-10-15T09:27:06.161Z,6.87
2018-10-15T09:29:34.245Z,7.30
2018-10-15T09:32:02.301Z,7.07
2018-10-15T09:34:30.387Z,6.50
2018-10-15T09:36:58.463Z,6.93
2018-10-15T09:39:26.481Z,6.73
2018-10-15T09:41:54.554Z,6.60
2018-10-15T09:44:22.717Z,6.93
2018-10-15T09:46:50.948Z,7.17
2018-10-15T09:49:19.011Z,6.60
2018-10-15T09:51:47.039Z,6.83
2018-10-15T09:54:15.070Z,6.63
2018-10-15T09:56:43.202Z,6.97
2018-10-15T09:59:11.233Z,7.67
2018-10-15T10:01:39.357Z,6.37
2018-10-15T10:04:07.632Z,7.50
2018-10-15T10:06:35.646Z,7.57
2018-10-15T10:09:07.051Z,7.87
2018-10-15T10:11:35.289Z,7.70
2018-10-15T10:14:03.583Z,6.43
2018-10-15T10:16:31.721Z,7.10
2018-10-15T10:18:59.788Z,7.10
2018-10-15T10:21:27.818Z,7.37
2018-10-15T10:23:55.916Z,6.60
2018-10-15T10:26:23.909Z,6.60
2018-10-15T10:28:52.184Z,7.30
2018-10-15T10:31:20.039Z,6.83
2018-10-15T10:34:04.428Z,8.03
2018-10-15T10:36:32.489Z,7.47
2018-10-15T10:39:00.603Z,6.67
2018-10-15T10:41:28.646Z,7.57
2018-10-15T10:43:56.729Z,7.10
2018-10-15T10:46:24.872Z,6.80
2018-10-15T10:48:52.866Z,6.33
2018-10-15T10:51:20.917Z,6.63
2018-10-15T10:53:48.969Z,6.87
2018-10-15T10:56:17.127Z,7.40
2018-10-15T10:58:45.236Z,7.37
2018-10-15T11:01:13.253Z,6.77
2018-10-15T11:03:41.288Z,6.53
2018-10-15T11:06:09.357Z,6.40
2018-10-15T11:08:37.479Z,6.97
2018-10-15T11:11:05.514Z,6.70
2018-10-15T11:13:33.660Z,7.27
2018-10-15T11:16:01.684Z,6.97
2018-10-15T11:18:29.813Z,6.37
2018-10-15T11:20:57.795Z,6.73
2018-10-15T11:23:25.850Z,6.40
2018-10-15T11:25:53.878Z,7.00
2018-10-15T11:28:21.914Z,6.33
2018-10-15T11:30:49.954Z,6.87
2018-10-15T11:33:18.240Z,6.83
2018-10-15T11:35:46.421Z,6.50
2018-10-15T11:38:14.633Z,6.27
2018-10-15T11:40:42.762Z,6.50
2018-10-15T11:43:11.011Z,6.40
2018-10-15T11:45:39.088Z,6.53
2018-10-15T11:48:07.233Z,6.27
2018-10-15T11:50:36.884Z,6.10
2018-10-15T11:53:05.161Z,5.87
2018-10-15T11:55:33.329Z,6.47
2018-10-15T11:58:01.806Z,5.80
2018-10-15T12:00:29.824Z,6.03
2018-10-15T12:02:57.886Z,6.00
2018-10-15T12:05:25.970Z,6.20
2018-10-15T12:07:54.047Z,5.43
2018-10-15T12:10:22.086Z,6.20
2018-10-15T12:12:50.154Z,6.20
2018-10-15T12:15:18.193Z,6.30
2018-10-15T12:17:46.263Z,5.80
2018-10-15T12:20:14.303Z,6.17
2018-10-15T12:22:42.450Z,6.27
2018-10-15T12:25:10.445Z,5.57
2018-10-15T12:27:38.502Z,5.60
2018-10-15T12:30:07.736Z,6.43
2018-10-15T12:32:35.864Z,5.73
2018-10-15T12:35:05.414Z,5.30
2018-10-15T12:37:33.604Z,5.33
2018-10-15T12:40:01.887Z,5.17
2018-10-15T12:42:29.958Z,5.23
2018-10-15T12:44:58.013Z,5.70
2018-10-15T12:47:26.092Z,5.10
2018-10-15T12:49:54.158Z,5.70
2018-10-15T12:52:22.213Z,5.50
2018-10-15T12:54:50.276Z,4.93
2018-10-15T12:57:18.455Z,5.50
2018-10-15T12:59:46.504Z,5.10
2018-10-15T13:02:14.537Z,4.50
2018-10-15T13:04:42.672Z,4.57
2018-10-15T13:07:10.999Z,4.40
2018-10-15T13:09:39.061Z,4.30
2018-10-15T13:12:07.159Z,4.10
2018-10-15T13:14:35.232Z,4.33
2018-10-15T13:17:03.319Z,6.33
2018-10-15T13:19:31.393Z,4.43
2018-10-15T13:21:59.456Z,4.57
2018-10-15T13:24:27.548Z,4.60
2018-10-15T13:26:55.584Z,4.50
2018-10-15T13:29:23.726Z,4.00
2018-10-15T13:31:51.762Z,5.50
2018-10-15T13:34:19.830Z,4.90
2018-10-15T13:36:47.957Z,4.40
2018-10-15T13:39:15.957Z,4.77
2018-10-15T13:41:44.154Z,5.17
2018-10-15T13:44:12.176Z,4.23
2018-10-15T13:46:40.204Z,4.93
2018-10-15T13:49:08.320Z,4.23
2018-10-15T13:51:36.458Z,4.40
2018-10-15T13:54:04.756Z,4.73
2018-10-15T13:56:32.817Z,4.63
2018-10-15T13:59:00.937Z,4.00
2018-10-15T14:01:29.004Z,3.77
2018-10-15T14:03:57.093Z,4.50
2018-10-15T14:06:25.147Z,4.23
2018-10-15T14:08:53.236Z,4.30
2018-10-15T14:11:21.273Z,4.43
2018-10-15T14:13:49.409Z,4.67
2018-10-15T14:16:17.969Z,4.20
2018-10-15T14:18:46.006Z,4.30
2018-10-15T14:21:14.211Z,4.50
2018-10-15T14:23:42.290Z,4.23
2018-10-15T14:26:10.349Z,4.40
2018-10-15T14:28:38.485Z,4.30
2018-10-15T14:31:06.712Z,4.43
2018-10-15T14:33:34.686Z,4.30
2018-10-15T14:36:02.766Z,4.50
2018-10-15T14:38:30.911Z,3.90
2018-10-15T14:40:58.909Z,4.40
2018-10-15T14:43:27.117Z,4.37
2018-10-15T14:45:55.196Z,4.50
2018-10-15T14:48:23.354Z,4.40
2018-10-15T14:50:51.415Z,5.07
2018-10-15T14:53:19.517Z,4.23
2018-10-15T14:55:47.588Z,4.10
2018-10-15T14:58:15.742Z,4.00
2018-10-15T15:00:43.735Z,4.07
2018-10-15T15:03:11.800Z,4.23
2018-10-15T15:05:39.888Z,4.00
2018-10-15T15:08:08.006Z,4.00
2018-10-15T15:10:47.361Z,3.97
2018-10-15T15:13:26.805Z,4.47
2018-10-15T15:15:54.826Z,3.83
2018-10-15T15:18:22.910Z,4.03
2018-10-15T15:20:50.985Z,4.40
2018-10-15T15:23:19.089Z,4.10
2018-10-15T15:25:47.334Z,3.83
2018-10-15T15:28:15.438Z,4.37
2018-10-15T15:30:43.501Z,4.00
2018-10-15T15:33:11.797Z,3.73
2018-10-15T15:35:39.930Z,4.20
2018-10-15T15:38:08.041Z,4.00
2018-10-15T15:40:36.090Z,4.23
2018-10-15T15:43:04.837Z,3.93
2018-10-15T15:45:33.000Z,4.27
2018-10-15T15:48:00.990Z,4.23
2018-10-15T15:50:29.173Z,4.13
2018-10-15T15:52:57.320Z,4.60
2018-10-15T15:55:25.336Z,3.90
2018-10-15T15:57:53.402Z,4.20
2018-10-15T16:00:21.484Z,3.83
2018-10-15T16:02:49.528Z,4.87
2018-10-15T16:05:17.682Z,4.90
2018-10-15T16:07:45.725Z,3.60
2018-10-15T16:10:13.752Z,3.93
2018-10-15T16:12:41.881Z,4.60
2018-10-15T16:15:10.093Z,4.93
2018-10-15T16:17:38.230Z,4.70
2018-10-15T16:20:07.065Z,5.50
2018-10-15T16:22:35.137Z,4.60
2018-10-15T16:25:03.336Z,5.57
2018-10-15T16:27:31.727Z,5.87
2018-10-15T16:29:59.798Z,5.33
2018-10-15T16:32:27.887Z,4.63
2018-10-15T16:34:56.301Z,5.10
2018-10-15T16:37:24.620Z,5.30
2018-10-15T16:39:52.687Z,5.63
2018-10-15T16:42:20.782Z,5.20
2018-10-15T16:44:48.879Z,5.90
2018-10-15T16:47:17.192Z,4.87
2018-10-15T16:49:45.617Z,4.73
2018-10-15T16:52:13.830Z,5.97
2018-10-15T16:54:42.013Z,5.30
2018-10-15T16:57:10.075Z,5.73
2018-10-15T16:59:38.365Z,5.00
2018-10-15T17:02:06.448Z,6.57
2018-10-15T17:04:34.685Z,7.20
2018-10-15T17:07:02.889Z,5.53
2018-10-15T17:09:31.008Z,5.10
2018-10-15T17:11:59.222Z,5.30
2018-10-15T17:14:27.446Z,5.13
2018-10-15T17:16:55.518Z,5.40
2018-10-15T17:19:23.729Z,4.83
2018-10-15T17:21:51.958Z,4.87
2018-10-15T17:24:20.008Z,4.77
2018-10-15T17:26:48.089Z,4.90
2018-10-15T17:29:16.259Z,5.37
2018-10-15T17:31:45.414Z,4.90
2018-10-15T17:34:13.542Z,4.83
2018-10-15T17:36:41.616Z,4.67
2018-10-15T17:39:09.674Z,5.50
2018-10-15T17:41:37.898Z,5.97
2018-10-15T17:44:06.017Z,5.97
2018-10-15T17:46:34.129Z,6.27
2018-10-15T17:49:02.518Z,5.60
2018-10-15T17:51:30.611Z,5.67
2018-10-15T17:53:58.686Z,5.97
2018-10-15T17:56:26.764Z,5.83
2018-10-15T17:58:54.951Z,6.27
2018-10-15T18:01:22.963Z,6.37
2018-10-15T18:03:51.043Z,6.17
2018-10-15T18:06:19.161Z,6.27
2018-10-15T18:08:47.419Z,7.00
2018-10-15T18:11:15.551Z,6.73
2018-10-15T18:13:43.664Z,6.10
2018-10-15T18:16:11.802Z,6.37
2018-10-15T18:18:39.853Z,6.43
2018-10-15T18:21:07.919Z,5.97
2018-10-15T18:23:36.119Z,5.70
2018-10-15T18:26:04.213Z,5.97
2018-10-15T18:28:32.288Z,7.17
2018-10-15T18:31:00.377Z,7.13
2018-10-15T18:33:28.520Z,7.33
2018-10-15T18:35:56.698Z,7.67
2018-10-15T18:38:24.772Z,7.23
2018-10-15T18:40:52.897Z,7.00
2018-10-15T18:43:20.949Z,6.77
2018-10-15T18:45:49.066Z,6.33
2018-10-15T18:48:17.842Z,6.10
2018-10-15T18:50:46.088Z,6.63
2018-10-15T18:53:15.946Z,7.40
2018-10-15T18:55:43.983Z,7.03
2018-10-15T18:58:12.243Z,7.07
2018-10-15T19:00:40.362Z,7.43
2018-10-15T19:03:08.438Z,6.80
2018-10-15T19:05:36.517Z,5.77
2018-10-15T19:08:04.822Z,6.60
2018-10-15T19:10:32.891Z,7.13
2018-10-15T19:13:01.127Z,9.87
2018-10-15T19:15:29.200Z,10.10
2018-10-15T19:17:57.375Z,9.33
2018-10-15T19:20:26.250Z,9.47
2018-10-15T19:22:54.799Z,7.77
2018-10-15T19:25:23.941Z,7.73
2018-10-15T19:27:52.049Z,8.07
2018-10-15T19:30:20.214Z,7.63
2018-10-15T19:32:48.297Z,7.50
2018-10-15T19:35:16.443Z,8.07
2018-10-15T19:37:44.614Z,7.47
2018-10-15T19:40:12.745Z,7.70
2018-10-15T19:42:40.959Z,7.87
2018-10-15T19:45:09.174Z,7.20
2018-10-15T19:47:37.282Z,7.10
2018-10-15T19:50:07.036Z,7.60
2018-10-15T19:52:35.265Z,6.67
2018-10-15T19:55:10.309Z,7.43
2018-10-15T19:57:38.366Z,6.83
2018-10-15T20:00:09.485Z,7.33
2018-10-15T20:02:37.572Z,7.63
2018-10-15T20:05:06.597Z,7.47
2018-10-15T20:07:34.771Z,7.40
2018-10-15T20:10:03.273Z,7.30
2018-10-15T20:12:31.293Z,7.37
2018-10-15T20:14:59.432Z,6.77
2018-10-15T20:17:27.649Z,7.50
2018-10-15T20:19:55.808Z,7.30
2018-10-15T20:22:23.938Z,6.80
2018-10-15T20:24:52.121Z,7.57
2018-10-15T20:27:20.520Z,7.77
2018-10-15T20:29:48.597Z,6.77
2018-10-15T20:32:16.873Z,7.40
2018-10-15T20:34:44.980Z,7.73
2018-10-15T20:37:13.245Z,8.20
2018-10-15T20:39:41.581Z,7.50
2018-10-15T20:42:09.862Z,8.17
2018-10-15T20:44:37.931Z,8.00
2018-10-15T20:47:06.082Z,7.83
2018-10-15T20:49:34.173Z,8.33
2018-10-15T20:52:02.223Z,7.73
2018-10-15T20:54:30.292Z,8.30
2018-10-15T20:56:58.502Z,7.97
2018-10-15T21:02:01.688Z,7.40
2018-10-15T21:04:29.768Z,7.50
2018-10-15T21:06:57.867Z,7.23
2018-10-15T21:09:26.086Z,8.53
2018-10-15T21:11:54.152Z,8.27
2018-10-15T21:14:22.369Z,9.00
2018-10-15T21:16:50.378Z,8.70
2018-10-15T21:19:18.476Z,8.33
2018-10-15T21:21:46.517Z,7.87
2018-10-15T21:24:14.610Z,8.43
2018-10-15T21:26:42.703Z,7.70
2018-10-15T21:29:10.748Z,9.07
2018-10-15T21:31:38.858Z,7.53
2018-10-15T21:34:06.978Z,7.53
2018-10-15T21:36:35.191Z,8.23
2018-10-15T21:39:04.113Z,8.93
2018-10-15T21:41:32.157Z,8.20
2018-10-15T21:44:00.232Z,8.83
2018-10-15T21:46:28.357Z,8.50
2018-10-15T21:48:56.427Z,8.40
2018-10-15T21:51:24.685Z,8.00
2018-10-15T21:53:59.449Z,8.23
2018-10-15T21:56:27.642Z,8.37
2018-10-15T21:58:57.627Z,7.97
2018-10-15T22:01:26.673Z,8.40
2018-10-15T22:03:55.270Z,8.73
2018-10-15T22:06:23.514Z,8.10
2018-10-15T22:08:51.660Z,9.07
2018-10-15T22:11:19.718Z,8.20
2018-10-15T22:13:47.804Z,9.23
2018-10-15T22:16:16.515Z,9.13
2018-10-15T22:18:44.524Z,9.73
2018-10-15T22:21:12.739Z,9.47
2018-10-15T22:23:40.757Z,10.37
2018-10-15T22:26:08.825Z,9.50
2018-10-15T22:28:36.896Z,8.87
2018-10-15T22:31:05.138Z,9.73
2018-10-15T22:33:33.248Z,9.00
2018-10-15T22:36:01.304Z,8.67
2018-10-15T22:38:29.497Z,9.40
2018-10-15T22:41:00.221Z,9.50
2018-10-15T22:43:28.300Z,9.60
2018-10-15T22:45:59.740Z,9.70
2018-10-15T22:48:30.270Z,9.27
2018-10-15T22:50:58.732Z,9.50
2018-10-15T22:53:26.780Z,9.20
2018-10-15T22:55:54.849Z,9.27
2018-10-15T22:58:22.922Z,10.47
2018-10-15T23:00:51.026Z,9.87
2018-10-15T23:03:19.275Z,10.23
2018-10-15T23:05:47.294Z,9.60
2018-10-15T23:08:15.353Z,9.37
2018-10-15T23:10:43.437Z,9.63
2018-10-15T23:13:11.502Z,9.80
2018-10-15T23:15:39.557Z,10.07
2018-10-15T23:18:07.660Z,9.10
2018-10-15T23:20:35.696Z,10.00
2018-10-15T23:23:03.757Z,9.37
2018-10-15T23:25:31.933Z,10.23
2018-10-15T23:28:00.010Z,10.03
2018-10-15T23:30:28.068Z,9.77
2018-10-15T23:32:56.140Z,9.87
2018-10-15T23:35:24.288Z,10.97
2018-10-15T23:37:52.321Z,10.57
2018-10-15T23:40:20.443Z,9.47
2018-10-15T23:42:48.494Z,10.57
2018-10-15T23:45:16.590Z,11.00
2018-10-15T23:47:44.644Z,10.17
2018-10-15T23:50:12.675Z,10.03
2018-10-15T23:52:40.724Z,10.37
2018-10-15T23:55:08.849Z,9.60
2018-10-15T23:57:37.266Z,10.03
